createdAt,value
2022-11-09T00:00:41.408Z,4.60
2022-11-09T00:03:09.046Z,3.77
2022-11-09T00:05:36.619Z,3.93
2022-11-09T00:08:07.844Z,4.20
2022-11-09T00:10:35.419Z,4.13
2022-11-09T00:13:02.984Z,4.03
2022-11-09T00:15:30.579Z,4.27
2022-11-09T00:18:00.939Z,4.40
2022-11-09T00:20:28.502Z,4.43
2022-11-09T00:22:56.063Z,4.60
2022-11-09T00:25:25.303Z,4.43
2022-11-09T00:27:53.579Z,4.10
2022-11-09T00:30:21.215Z,4.27
2022-11-09T00:32:49.146Z,4.17
2022-11-09T00:35:16.804Z,4.00
2022-11-09T00:37:44.430Z,4.00
2022-11-09T00:40:13.090Z,3.47
2022-11-09T00:42:42.049Z,3.60
2022-11-09T00:45:09.938Z,3.60
2022-11-09T00:47:37.519Z,3.20
2022-11-09T00:50:05.319Z,3.20
2022-11-09T00:52:32.879Z,3.37
2022-11-09T00:55:00.654Z,2.90
2022-11-09T00:57:28.185Z,3.60
2022-11-09T00:59:57.146Z,3.93
2022-11-09T01:02:25.902Z,3.30
2022-11-09T01:04:53.525Z,3.47
2022-11-09T01:07:21.167Z,3.53
2022-11-09T01:09:48.766Z,3.93
2022-11-09T01:12:16.316Z,3.50
2022-11-09T01:14:43.940Z,3.90
2022-11-09T01:17:12.884Z,3.70
2022-11-09T01:19:40.437Z,4.30
2022-11-09T01:22:07.998Z,3.73
2022-11-09T01:24:35.544Z,4.50
2022-11-09T01:27:03.109Z,4.40
2022-11-09T01:29:31.200Z,3.67
2022-11-09T01:31:58.762Z,3.80
2022-11-09T01:34:28.588Z,4.67
2022-11-09T01:36:56.207Z,4.07
2022-11-09T01:39:23.769Z,4.67
2022-11-09T01:41:51.338Z,4.13
2022-11-09T01:44:20.007Z,4.90
2022-11-09T01:46:50.658Z,4.40
2022-11-09T01:49:23.574Z,3.80
2022-11-09T01:51:54.336Z,4.93
2022-11-09T01:54:24.042Z,4.97
2022-11-09T01:56:52.989Z,5.07
2022-11-09T01:59:22.492Z,4.50
2022-11-09T02:01:51.452Z,4.83
2022-11-09T02:04:22.070Z,4.30
2022-11-09T02:06:50.402Z,4.40
2022-11-09T02:09:24.307Z,4.53
2022-11-09T02:11:51.933Z,4.40
2022-11-09T02:14:20.796Z,4.50
2022-11-09T02:16:48.878Z,4.47
2022-11-09T02:19:16.541Z,4.30
2022-11-09T02:21:45.492Z,4.33
2022-11-09T02:24:13.538Z,4.40
2022-11-09T02:26:42.558Z,4.27
2022-11-09T02:29:13.143Z,4.37
2022-11-09T02:31:43.772Z,4.33
2022-11-09T02:34:13.791Z,3.97
2022-11-09T02:36:43.462Z,4.07
2022-11-09T02:39:17.564Z,4.03
2022-11-09T02:41:47.647Z,4.67
2022-11-09T02:44:16.350Z,4.30
2022-11-09T02:46:44.459Z,4.50
2022-11-09T02:49:12.075Z,4.00
2022-11-09T02:51:39.643Z,3.70
2022-11-09T02:54:07.263Z,3.80
2022-11-09T02:56:36.510Z,3.33
2022-11-09T02:59:04.279Z,4.20
2022-11-09T03:01:33.232Z,3.87
2022-11-09T03:04:00.842Z,3.73
2022-11-09T03:06:35.133Z,4.63
2022-11-09T03:09:07.635Z,3.80
2022-11-09T03:11:36.710Z,4.17
2022-11-09T03:14:06.525Z,3.80
2022-11-09T03:16:35.145Z,3.57
2022-11-09T03:19:04.930Z,3.63
2022-11-09T03:21:33.512Z,10.23
2022-11-09T03:24:01.096Z,9.60
2022-11-09T03:26:28.659Z,9.30
2022-11-09T03:28:58.540Z,9.17
2022-11-09T03:31:26.324Z,7.67
2022-11-09T03:33:55.431Z,5.70
2022-11-09T03:36:23.178Z,4.50
2022-11-09T03:38:51.271Z,3.97
2022-11-09T03:41:18.916Z,5.90
2022-11-09T03:43:46.715Z,4.33
2022-11-09T03:46:15.663Z,3.80
2022-11-09T03:48:43.226Z,3.27
2022-11-09T03:51:10.767Z,3.60
2022-11-09T03:53:38.319Z,3.33
2022-11-09T03:56:06.101Z,3.10
2022-11-09T03:58:33.663Z,3.50
2022-11-09T04:01:01.579Z,4.80
2022-11-09T04:03:30.486Z,4.50
2022-11-09T04:05:59.049Z,5.77
2022-11-09T04:08:26.610Z,17.50
2022-11-09T04:10:54.211Z,15.27
2022-11-09T04:13:22.090Z,19.67
2022-11-09T04:15:49.843Z,21.77
2022-11-09T04:18:17.759Z,12.53
2022-11-09T04:20:46.807Z,6.50
2022-11-09T04:23:14.737Z,4.63
2022-11-09T04:25:43.103Z,3.60
2022-11-09T04:28:19.275Z,4.87
2022-11-09T04:30:46.842Z,4.23
2022-11-09T04:33:14.466Z,7.43
2022-11-09T04:35:42.038Z,8.40
2022-11-09T04:38:13.654Z,7.93
2022-11-09T04:40:41.394Z,8.30
2022-11-09T04:43:11.766Z,8.80
2022-11-09T04:45:39.347Z,8.07
2022-11-09T04:48:07.983Z,7.77
2022-11-09T04:50:35.882Z,8.03
2022-11-09T04:53:11.835Z,7.83
2022-11-09T04:55:39.823Z,8.53
2022-11-09T04:58:07.547Z,8.60
2022-11-09T05:00:35.584Z,8.13
2022-11-09T05:03:03.525Z,8.30
2022-11-09T05:05:31.399Z,10.83
2022-11-09T05:07:58.992Z,7.80
2022-11-09T05:10:27.932Z,7.50
2022-11-09T05:12:58.673Z,6.63
2022-11-09T05:15:26.231Z,7.43
2022-11-09T05:17:53.796Z,6.10
2022-11-09T05:20:21.363Z,7.30
2022-11-09T05:23:06.531Z,6.80
2022-11-09T05:25:35.478Z,7.17
2022-11-09T05:28:03.060Z,6.27
2022-11-09T05:30:30.730Z,6.57
2022-11-09T05:32:58.292Z,6.00
2022-11-09T05:35:25.856Z,6.67
2022-11-09T05:37:53.498Z,6.63
2022-11-09T05:40:21.269Z,6.90
2022-11-09T05:42:50.195Z,6.67
2022-11-09T05:48:06.130Z,6.00
2022-11-09T05:50:33.724Z,5.90
2022-11-09T05:53:15.543Z,5.70
2022-11-09T05:55:43.115Z,6.43
2022-11-09T05:58:12.043Z,6.13
2022-11-09T06:00:39.698Z,6.27
2022-11-09T06:03:08.018Z,7.07
2022-11-09T06:05:36.057Z,7.53
2022-11-09T06:08:04.317Z,6.63
2022-11-09T06:10:32.219Z,6.27
2022-11-09T06:12:59.784Z,6.77
2022-11-09T06:15:28.744Z,8.93
2022-11-09T06:17:56.775Z,8.37
2022-11-09T06:20:25.055Z,6.03
2022-11-09T06:22:58.738Z,6.80
2022-11-09T06:25:28.548Z,6.37
2022-11-09T06:27:56.507Z,6.50
2022-11-09T06:30:24.398Z,7.40
2022-11-09T06:32:53.317Z,7.07
2022-11-09T06:35:20.856Z,9.77
2022-11-09T06:37:48.416Z,9.00
2022-11-09T06:40:15.978Z,8.87
2022-11-09T06:42:43.606Z,8.47
2022-11-09T06:45:11.363Z,7.20
2022-11-09T06:47:39.144Z,6.73
2022-11-09T06:50:09.421Z,6.03
2022-11-09T06:52:36.984Z,5.97
2022-11-09T06:55:04.711Z,6.53
2022-11-09T06:57:32.415Z,5.97
2022-11-09T07:00:00.254Z,7.10
2022-11-09T07:02:28.390Z,7.03
2022-11-09T07:04:55.928Z,7.03
2022-11-09T07:07:27.906Z,6.53
2022-11-09T07:09:57.336Z,9.30
2022-11-09T07:12:24.931Z,25.77
2022-11-09T07:14:52.526Z,23.60
2022-11-09T07:17:20.096Z,22.80
2022-11-09T07:19:48.048Z,24.30
2022-11-09T07:22:15.676Z,23.20
2022-11-09T07:24:44.578Z,22.10
2022-11-09T07:27:12.120Z,20.30
2022-11-09T07:29:39.660Z,19.23
2022-11-09T07:32:07.219Z,16.27
2022-11-09T07:34:34.787Z,16.53
2022-11-09T07:37:02.891Z,15.07
2022-11-09T07:39:30.456Z,13.13
2022-11-09T07:41:59.360Z,11.13
2022-11-09T07:44:28.179Z,10.63
2022-11-09T07:46:55.719Z,10.80
2022-11-09T07:49:23.285Z,11.57
2022-11-09T07:51:50.898Z,12.70
2022-11-09T07:54:18.446Z,12.13
2022-11-09T07:56:45.995Z,14.23
2022-11-09T07:59:14.887Z,12.43
2022-11-09T08:01:42.496Z,11.40
2022-11-09T08:04:10.728Z,11.13
2022-11-09T08:06:38.672Z,12.23
2022-11-09T08:09:06.272Z,11.10
2022-11-09T08:11:33.935Z,11.47
2022-11-09T08:14:01.558Z,10.73
2022-11-09T08:16:36.473Z,9.20
2022-11-09T08:19:05.442Z,10.13
2022-11-09T08:21:33.007Z,8.63
2022-11-09T08:24:00.532Z,10.90
2022-11-09T08:26:28.199Z,11.60
2022-11-09T08:28:55.772Z,12.77
2022-11-09T08:31:23.371Z,10.87
2022-11-09T08:33:52.295Z,9.63
2022-11-09T08:36:20.012Z,11.00
2022-11-09T08:38:47.780Z,9.50
2022-11-09T08:41:15.364Z,9.13
2022-11-09T08:43:42.940Z,7.07
2022-11-09T08:46:10.478Z,7.87
2022-11-09T08:48:38.042Z,9.53
2022-11-09T08:51:07.167Z,6.80
2022-11-09T08:53:34.714Z,8.43
2022-11-09T08:56:02.364Z,6.50
2022-11-09T08:58:29.932Z,6.77
2022-11-09T09:00:57.498Z,6.97
2022-11-09T09:03:25.068Z,6.50
2022-11-09T09:05:52.694Z,6.40
2022-11-09T09:08:23.222Z,5.87
2022-11-09T09:10:51.191Z,5.43
2022-11-09T09:13:22.421Z,5.30
2022-11-09T09:15:50.147Z,5.60
2022-11-09T09:18:17.935Z,7.60
2022-11-09T09:20:45.761Z,7.17
2022-11-09T09:23:15.182Z,8.17
2022-11-09T09:25:44.401Z,9.03
2022-11-09T09:28:12.175Z,7.27
2022-11-09T09:30:39.788Z,7.40
2022-11-09T09:33:07.356Z,8.43
2022-11-09T09:35:34.919Z,8.27
2022-11-09T09:38:02.744Z,8.03
2022-11-09T09:40:32.717Z,8.40
2022-11-09T09:43:01.883Z,8.20
2022-11-09T09:45:32.078Z,8.90
2022-11-09T09:48:01.624Z,8.67
2022-11-09T09:50:31.236Z,8.77
2022-11-09T09:55:51.701Z,8.00
2022-11-09T09:58:23.876Z,7.93
2022-11-09T10:00:53.267Z,8.03
2022-11-09T10:03:21.723Z,9.03
2022-11-09T10:05:52.979Z,7.90
2022-11-09T10:08:27.400Z,8.63
2022-11-09T10:10:58.444Z,7.57
2022-11-09T10:13:40.837Z,7.87
2022-11-09T10:16:12.803Z,7.83
2022-11-09T10:18:46.303Z,8.27
2022-11-09T10:21:21.163Z,8.60
2022-11-09T10:23:54.509Z,8.70
2022-11-09T10:26:23.899Z,10.97
2022-11-09T10:29:15.042Z,12.70
2022-11-09T10:31:43.810Z,9.67
2022-11-09T10:34:17.231Z,11.73
2022-11-09T10:36:46.122Z,9.30
2022-11-09T10:39:15.028Z,7.83
2022-11-09T10:42:01.518Z,8.73
2022-11-09T10:44:47.907Z,10.13
2022-11-09T10:47:47.470Z,9.57
2022-11-09T10:50:34.727Z,8.13
2022-11-09T10:53:21.976Z,7.70
2022-11-09T10:56:19.926Z,8.00
2022-11-09T10:59:30.378Z,7.07
2022-11-09T11:02:34.974Z,9.97
2022-11-09T11:05:30.044Z,7.13
2022-11-09T11:08:24.370Z,6.93
2022-11-09T11:11:44.435Z,7.30
2022-11-09T11:14:27.070Z,6.80
2022-11-09T11:17:21.953Z,9.23
2022-11-09T11:20:26.580Z,7.17
2022-11-09T11:23:15.803Z,7.57
2022-11-09T11:26:13.962Z,6.67
2022-11-09T11:29:02.035Z,8.13
2022-11-09T11:31:48.664Z,6.57
2022-11-09T11:34:58.450Z,6.53
2022-11-09T11:37:47.306Z,5.87
2022-11-09T11:40:39.431Z,6.00
2022-11-09T11:43:31.291Z,5.87
2022-11-09T11:46:22.848Z,5.77
2022-11-09T11:49:20.711Z,6.53
2022-11-09T11:52:09.264Z,6.13
2022-11-09T11:55:04.291Z,6.63
2022-11-09T11:57:57.362Z,6.70
2022-11-09T12:00:48.886Z,6.17
2022-11-09T12:03:41.034Z,6.30
2022-11-09T12:06:44.105Z,5.93
2022-11-09T12:09:38.918Z,6.40
2022-11-09T12:12:30.072Z,6.73
2022-11-09T12:15:27.592Z,6.43
2022-11-09T12:18:19.544Z,6.43
2022-11-09T12:21:13.570Z,6.20
2022-11-09T12:24:09.231Z,7.37
2022-11-09T12:27:30.495Z,6.30
2022-11-09T12:30:12.784Z,5.97
2022-11-09T12:33:01.584Z,6.07
2022-11-09T12:35:51.266Z,6.70
2022-11-09T12:38:39.938Z,6.27
2022-11-09T12:41:28.713Z,7.30
2022-11-09T12:44:17.398Z,6.30
2022-11-09T12:47:05.902Z,6.67
2022-11-09T12:49:54.837Z,6.53
2022-11-09T12:52:41.602Z,6.57
2022-11-09T12:55:30.637Z,7.03
2022-11-09T12:58:27.185Z,7.57
2022-11-09T13:01:14.114Z,7.17
2022-11-09T13:04:02.067Z,7.13
2022-11-09T13:09:45.019Z,7.23
2022-11-09T13:12:34.577Z,7.40
2022-11-09T13:15:25.180Z,7.40
2022-11-09T13:18:24.336Z,7.97
2022-11-09T13:21:29.270Z,6.87
2022-11-09T13:24:34.140Z,7.57
2022-11-09T13:27:35.276Z,7.80
2022-11-09T13:30:43.124Z,7.20
2022-11-09T13:33:29.228Z,7.97
2022-11-09T13:36:20.255Z,8.47
2022-11-09T13:39:24.312Z,7.60
2022-11-09T13:42:24.986Z,8.50
2022-11-09T13:45:18.344Z,6.77
2022-11-09T13:48:07.371Z,6.43
2022-11-09T13:50:56.515Z,7.50
2022-11-09T13:53:52.060Z,7.63
2022-11-09T13:56:39.920Z,7.37
2022-11-09T13:59:28.100Z,7.10
2022-11-09T14:02:19.141Z,7.80
2022-11-09T14:05:06.843Z,7.83
2022-11-09T14:07:54.068Z,7.60
2022-11-09T14:10:45.881Z,9.80
2022-11-09T14:14:02.042Z,9.50
2022-11-09T14:16:53.132Z,9.17
2022-11-09T14:19:43.335Z,9.63
2022-11-09T14:22:32.504Z,9.73
2022-11-09T14:25:21.420Z,9.53
2022-11-09T14:28:15.084Z,9.97
2022-11-09T14:31:01.996Z,9.50
2022-11-09T14:33:58.773Z,9.23
2022-11-09T14:36:45.375Z,9.30
2022-11-09T14:39:34.324Z,9.67
2022-11-09T14:42:21.919Z,9.53
2022-11-09T14:45:14.551Z,9.67
2022-11-09T14:48:01.114Z,10.93
2022-11-09T14:50:47.150Z,10.13
2022-11-09T14:53:34.273Z,9.03
2022-11-09T14:56:22.655Z,9.43
2022-11-09T14:59:09.327Z,9.70
2022-11-09T15:02:03.829Z,9.63
2022-11-09T15:04:56.936Z,9.03
2022-11-09T15:07:46.199Z,9.17
2022-11-09T15:10:32.785Z,9.13
2022-11-09T15:13:20.690Z,8.73
2022-11-09T15:16:07.645Z,9.27
2022-11-09T15:18:53.966Z,9.60
2022-11-09T15:21:40.047Z,9.30
2022-11-09T15:24:27.505Z,10.60
2022-11-09T15:27:29.619Z,10.07
2022-11-09T15:30:29.036Z,9.20
2022-11-09T15:33:24.267Z,8.70
2022-11-09T15:36:21.279Z,9.00
2022-11-09T15:39:09.356Z,8.20
2022-11-09T15:41:57.586Z,10.10
2022-11-09T15:44:43.672Z,8.33
2022-11-09T15:47:33.404Z,9.57
2022-11-09T15:50:20.890Z,9.40
2022-11-09T15:53:07.207Z,9.57
2022-11-09T15:55:53.539Z,10.13
2022-11-09T15:58:39.943Z,10.07
2022-11-09T16:01:26.513Z,9.43
2022-11-09T16:04:13.784Z,8.47
2022-11-09T16:06:59.938Z,8.63
2022-11-09T16:09:46.183Z,8.53
2022-11-09T16:12:32.487Z,9.43
2022-11-09T16:15:18.842Z,8.70
2022-11-09T16:18:06.290Z,7.93
2022-11-09T16:20:53.615Z,8.47
2022-11-09T16:23:39.955Z,8.37
2022-11-09T16:26:26.643Z,8.90
2022-11-09T16:29:12.787Z,8.67
2022-11-09T16:31:58.848Z,8.03
2022-11-09T16:34:50.079Z,7.73
2022-11-09T16:37:55.070Z,6.57
2022-11-09T16:40:41.295Z,7.43
2022-11-09T16:43:27.616Z,7.10
2022-11-09T16:46:14.655Z,7.27
2022-11-09T16:49:01.601Z,7.57
2022-11-09T16:51:47.858Z,7.47
2022-11-09T16:54:35.864Z,7.20
2022-11-09T16:57:21.884Z,7.83
2022-11-09T17:00:08.738Z,7.83
2022-11-09T17:02:55.240Z,7.63
2022-11-09T17:05:41.971Z,7.50
2022-11-09T17:08:28.186Z,7.83
2022-11-09T17:11:17.295Z,6.73
2022-11-09T17:14:03.535Z,5.30
2022-11-09T17:16:49.827Z,5.37
2022-11-09T17:19:36.748Z,4.90
2022-11-09T17:22:23.031Z,5.00
2022-11-09T17:25:09.567Z,5.43
2022-11-09T17:27:57.012Z,4.13
2022-11-09T17:30:43.273Z,4.40
2022-11-09T17:33:29.464Z,4.27
2022-11-09T17:36:16.992Z,3.90
2022-11-09T17:39:06.235Z,4.83
2022-11-09T17:41:52.184Z,4.70
2022-11-09T17:44:39.785Z,4.37
2022-11-09T17:47:26.226Z,4.67
2022-11-09T17:50:12.467Z,3.43
2022-11-09T17:52:58.910Z,4.10
2022-11-09T17:55:49.171Z,4.30
2022-11-09T17:58:35.572Z,4.13
2022-11-09T18:01:23.266Z,4.23
2022-11-09T18:04:09.956Z,4.80
2022-11-09T18:06:55.997Z,4.10
2022-11-09T18:09:42.819Z,4.80
2022-11-09T18:12:29.223Z,5.03
2022-11-09T18:15:15.942Z,4.53
2022-11-09T18:18:03.706Z,4.40
2022-11-09T18:20:49.828Z,3.93
2022-11-09T18:23:36.998Z,4.03
2022-11-09T18:26:23.131Z,3.77
2022-11-09T18:29:09.383Z,4.00
2022-11-09T18:31:55.615Z,4.27
2022-11-09T18:34:43.216Z,4.13
2022-11-09T18:37:29.268Z,4.13
2022-11-09T18:40:16.307Z,4.23
2022-11-09T18:43:02.646Z,4.13
2022-11-09T18:45:54.736Z,4.17
2022-11-09T18:48:41.053Z,3.83
2022-11-09T18:51:28.550Z,3.60
2022-11-09T18:54:14.503Z,3.60
2022-11-09T18:57:00.735Z,4.07
2022-11-09T18:59:47.043Z,3.80
2022-11-09T19:02:34.810Z,3.93
2022-11-09T19:05:21.122Z,3.83
2022-11-09T19:08:08.913Z,3.77
2022-11-09T19:10:54.898Z,3.50
2022-11-09T19:13:41.384Z,3.90
2022-11-09T19:16:28.022Z,4.20
2022-11-09T19:19:14.760Z,3.47
2022-11-09T19:22:00.883Z,3.40
2022-11-09T19:24:48.559Z,3.63
2022-11-09T19:27:34.558Z,3.50
2022-11-09T19:30:25.330Z,3.53
2022-11-09T19:33:12.014Z,3.73
2022-11-09T19:36:28.142Z,4.00
2022-11-09T19:39:04.327Z,4.30
2022-11-09T19:41:52.035Z,4.07
2022-11-09T19:44:38.210Z,4.10
2022-11-09T19:47:24.464Z,4.17
2022-11-09T19:50:11.051Z,4.47
2022-11-09T19:52:57.150Z,4.30
2022-11-09T19:55:43.505Z,6.50
2022-11-09T19:58:31.075Z,4.57
2022-11-09T20:01:17.233Z,3.90
2022-11-09T20:04:09.083Z,3.67
2022-11-09T20:06:56.466Z,3.90
2022-11-09T20:09:42.819Z,4.17
2022-11-09T20:12:46.567Z,3.20
2022-11-09T20:15:34.335Z,5.10
2022-11-09T20:18:23.706Z,13.43
2022-11-09T20:21:09.913Z,6.30
2022-11-09T20:23:56.464Z,6.50
2022-11-09T20:26:43.776Z,6.93
2022-11-09T20:29:29.804Z,6.77
2022-11-09T20:32:21.468Z,6.47
2022-11-09T20:35:08.193Z,5.70
2022-11-09T20:37:54.406Z,5.53
2022-11-09T20:40:40.597Z,5.60
2022-11-09T20:43:27.174Z,5.83
2022-11-09T20:46:16.395Z,5.50
2022-11-09T20:49:04.540Z,5.20
2022-11-09T20:51:50.854Z,5.90
2022-11-09T20:54:38.244Z,5.70
2022-11-09T20:57:24.370Z,5.50
2022-11-09T21:00:11.644Z,5.80
2022-11-09T21:02:57.916Z,5.60
2022-11-09T21:05:50.963Z,5.67
2022-11-09T21:08:38.803Z,5.27
2022-11-09T21:11:28.529Z,5.63
2022-11-09T21:14:14.616Z,6.33
2022-11-09T21:17:00.907Z,5.83
2022-11-09T21:19:47.385Z,6.17
2022-11-09T21:23:07.290Z,5.47
2022-11-09T21:26:10.993Z,6.20
2022-11-09T21:29:14.820Z,5.20
2022-11-09T21:32:01.516Z,5.40
2022-11-09T21:34:47.552Z,5.17
2022-11-09T21:37:35.191Z,5.77
2022-11-09T21:40:21.452Z,5.47
2022-11-09T21:43:07.847Z,5.53
2022-11-09T21:45:54.717Z,5.50
2022-11-09T21:48:40.800Z,6.23
2022-11-09T21:51:27.075Z,5.33
2022-11-09T21:54:14.698Z,5.70
2022-11-09T21:57:00.734Z,5.73
2022-11-09T21:59:46.772Z,5.67
2022-11-09T22:02:33.079Z,6.03
2022-11-09T22:05:22.905Z,6.80
2022-11-09T22:08:09.565Z,5.83
2022-11-09T22:11:05.981Z,6.83
2022-11-09T22:14:09.252Z,6.77
2022-11-09T22:16:55.667Z,6.53
2022-11-09T22:19:59.506Z,8.93
2022-11-09T22:22:45.991Z,9.40
2022-11-09T22:25:32.384Z,9.67
2022-11-09T22:28:20.151Z,8.83
2022-11-09T22:31:06.984Z,9.17
2022-11-09T22:33:53.690Z,8.30
2022-11-09T22:36:39.696Z,8.40
2022-11-09T22:39:25.987Z,6.93
2022-11-09T22:42:12.446Z,7.80
2022-11-09T22:45:00.159Z,7.77
2022-11-09T22:47:46.500Z,7.47
2022-11-09T22:50:32.906Z,7.60
2022-11-09T22:53:19.474Z,7.90
2022-11-09T22:56:05.988Z,8.50
2022-11-09T22:58:52.765Z,7.97
2022-11-09T23:01:40.258Z,7.70
2022-11-09T23:04:26.829Z,6.90
2022-11-09T23:07:13.198Z,7.43
2022-11-09T23:09:59.506Z,7.23
2022-11-09T23:12:45.967Z,7.57
2022-11-09T23:15:32.697Z,7.80
2022-11-09T23:18:37.428Z,8.20
2022-11-09T23:21:24.968Z,7.60
2022-11-09T23:24:31.599Z,7.13
2022-11-09T23:27:18.129Z,8.27
2022-11-09T23:30:04.518Z,9.27
2022-11-09T23:32:50.531Z,9.40
2022-11-09T23:35:38.286Z,8.83
2022-11-09T23:38:24.804Z,9.73
2022-11-09T23:41:11.633Z,8.73
2022-11-09T23:43:58.021Z,8.27
2022-11-09T23:46:44.319Z,8.53
2022-11-09T23:49:30.567Z,7.83
2022-11-09T23:52:18.382Z,8.87
2022-11-09T23:55:04.431Z,8.20
2022-11-09T23:57:50.369Z,8.73
